Time;durP1;ratioP1;P1;durP2;ratioP2;P2;SDS_P1;SDS_P2;PMS_P1;PMS_P2;Temp;Humidity;BMP_temperature;BMP_pressure;BME280_temperature;BME280_humidity;BME280_pressure;Samples;Min_cycle;Max_cycle;Signal;HPM_P1;HPM_P2
2022/08/03 00:00:19;;;;;;;4.13;2.58;;;;;;;17.45;66.74;97408.84;5024318;28;20029;-63
2022/08/03 00:02:46;;;;;;;4.45;2.53;;;;;;;17.40;66.95;97411.66;5020676;28;20038;-63
2022/08/03 00:05:12;;;;;;;5.82;2.50;;;;;;;17.33;66.49;97408.47;5020523;28;20065;-63
2022/08/03 00:07:40;;;;;;;4.68;2.70;;;;;;;17.30;66.80;97415.34;5025917;28;20049;-63
2022/08/03 00:10:07;;;;;;;4.97;2.60;;;;;;;17.35;66.53;97415.28;5024926;28;20041;-63
2022/08/03 00:12:35;;;;;;;4.88;2.70;;;;;;;17.32;66.79;97413.13;5025120;28;20041;-64
2022/08/03 00:15:02;;;;;;;3.65;2.13;;;;;;;17.35;66.85;97409.81;5025197;28;20053;-63
2022/08/03 00:17:31;;;;;;;4.22;2.45;;;;;;;17.25;66.95;97412.69;5025468;28;20050;-63
2022/08/03 00:20:17;;;;;;;4.10;2.67;;;;;;;17.21;67.37;97403.44;5005805;28;20092;-63
2022/08/03 00:22:44;;;;;;;4.38;2.70;;;;;;;17.20;67.25;97405.38;5006581;28;20104;-63
2022/08/03 00:25:10;;;;;;;3.53;2.50;;;;;;;17.22;67.18;97407.81;5025616;28;20420;-63
2022/08/03 00:27:37;;;;;;;7.85;2.88;;;;;;;17.15;67.62;97402.72;5022137;28;20050;-63
2022/08/03 00:30:04;;;;;;;3.70;2.30;;;;;;;17.17;67.45;97408.69;5025664;28;20046;-63
2022/08/03 00:32:31;;;;;;;7.03;2.72;;;;;;;17.10;67.78;97400.03;5025420;28;20559;-63
2022/08/03 00:34:58;;;;;;;4.88;2.10;;;;;;;17.10;67.45;97403.56;5025536;28;20045;-63
2022/08/03 00:37:25;;;;;;;5.50;3.00;;;;;;;17.12;67.37;97398.63;5025723;28;20404;-63
2022/08/03 00:40:09;;;;;;;3.88;2.50;;;;;;;17.22;67.01;97394.13;5005923;28;20571;-63
2022/08/03 00:42:49;;;;;;;3.88;2.40;;;;;;;17.23;66.88;97398.47;5008381;28;20034;-63
2022/08/03 00:45:17;;;;;;;6.60;2.33;;;;;;;17.28;66.76;97391.03;5024675;28;20050;-64
2022/08/03 00:47:44;;;;;;;5.40;2.30;;;;;;;17.24;66.78;97389.16;5025190;28;20049;-64
2022/08/03 00:50:11;;;;;;;5.13;3.13;;;;;;;17.21;66.95;97389.78;5021875;28;20053;-64
2022/08/03 00:52:39;;;;;;;3.65;2.33;;;;;;;17.13;67.35;97389.31;5019135;28;20041;-63
2022/08/03 00:55:05;;;;;;;4.97;2.78;;;;;;;17.09;67.35;97382.81;5021458;28;20045;-64
2022/08/03 00:57:32;;;;;;;4.78;2.53;;;;;;;17.19;67.08;97383.78;5024606;28;20050;-63
2022/08/03 00:59:59;;;;;;;5.68;2.75;;;;;;;17.08;67.54;97383.91;5018917;28;20033;-63
2022/08/03 01:02:27;;;;;;;4.35;2.67;;;;;;;17.09;67.48;97385.53;5005784;28;20046;-64
2022/08/03 01:04:55;;;;;;;4.88;2.60;;;;;;;17.05;67.88;97383.69;5012902;28;20048;-63
2022/08/03 01:07:41;;;;;;;4.03;2.78;;;;;;;17.04;67.79;97380.13;5015584;28;20551;-64
2022/08/03 01:10:12;;;;;;;4.05;2.22;;;;;;;17.12;67.70;97378.66;5022091;28;20420;-64
2022/08/03 01:13:01;;;;;;;7.00;2.92;;;;;;;17.14;67.84;97380.00;5025618;28;20038;-64
2022/08/03 01:15:37;;;;;;;4.82;2.55;;;;;;;17.21;67.37;97384.31;5025332;28;20098;-64
2022/08/03 01:18:15;;;;;;;4.25;2.90;;;;;;;17.18;67.52;97382.16;5026390;28;20497;-64
2022/08/03 01:20:46;;;;;;;4.43;2.40;;;;;;;17.26;67.12;97378.75;5029262;28;20639;-64
2022/08/03 01:23:37;;;;;;;5.25;2.53;;;;;;;17.22;67.41;97377.72;5028433;28;20038;-64
2022/08/03 01:26:06;;;;;;;4.63;2.50;;;;;;;17.23;67.26;97373.88;5028956;28;20049;-64
2022/08/03 01:29:00;;;;;;;5.90;2.67;;;;;;;17.19;67.48;97367.34;5025672;28;20497;-63
2022/08/03 01:31:35;;;;;;;4.75;2.63;;;;;;;17.16;67.64;97377.78;5023188;28;20389;-63
2022/08/03 01:34:25;;;;;;;4.90;2.58;;;;;;;17.07;67.96;97368.63;5028439;28;20656;-63
2022/08/03 01:36:55;;;;;;;4.28;2.55;;;;;;;17.00;68.15;97365.41;5028098;28;20041;-63
2022/08/03 01:39:24;;;;;;;3.72;2.40;;;;;;;16.95;68.37;97363.53;5015839;28;20037;-63
2022/08/03 01:41:58;;;;;;;4.60;3.00;;;;;;;16.81;68.87;97355.22;5019339;28;20053;-63
2022/08/03 01:44:30;;;;;;;4.28;2.42;;;;;;;16.67;69.39;97354.34;5010527;28;20084;-62
2022/08/03 01:46:59;;;;;;;5.20;2.88;;;;;;;16.60;69.63;97358.25;5008807;28;20124;-63
2022/08/03 01:49:29;;;;;;;3.97;2.45;;;;;;;16.56;69.92;97356.38;5010189;28;20064;-63
2022/08/03 01:51:57;;;;;;;4.30;2.90;;;;;;;16.54;70.17;97353.13;5028018;28;20069;-64
2022/08/03 01:54:43;;;;;;;3.95;2.65;;;;;;;16.48;70.30;97350.44;5021453;28;20045;-65
2022/08/03 01:57:11;;;;;;;4.30;2.80;;;;;;;16.52;70.32;97345.22;5027998;28;20041;-64
2022/08/03 01:59:40;;;;;;;5.75;2.63;;;;;;;16.49;70.26;97349.34;5028269;28;20041;-63
2022/08/03 02:02:09;;;;;;;4.43;2.60;;;;;;;16.55;70.01;97350.09;5027423;28;20049;-63
2022/08/03 02:04:59;;;;;;;5.40;2.80;;;;;;;16.51;70.34;97349.88;5018433;28;20564;-64
2022/08/03 02:07:27;;;;;;;4.95;2.90;;;;;;;16.42;70.58;97348.06;5012656;28;20501;-63
2022/08/03 02:09:56;;;;;;;4.35;2.70;;;;;;;16.43;70.43;97352.44;5016289;28;20049;-64
2022/08/03 02:12:25;;;;;;;4.55;2.65;;;;;;;16.31;71.21;97350.91;5020186;28;20045;-63
2022/08/03 02:14:55;;;;;;;4.80;3.30;;;;;;;16.25;71.19;97350.16;5005234;28;20050;-63
2022/08/03 02:17:23;;;;;;;3.97;2.53;;;;;;;16.25;71.14;97349.34;5025903;28;20053;-63
2022/08/03 02:20:08;;;;;;;4.50;3.05;;;;;;;16.28;71.37;97350.69;5027291;28;20041;-63
2022/08/03 02:22:38;;;;;;;4.88;2.85;;;;;;;16.33;71.56;97348.69;5027640;28;20049;-64
2022/08/03 02:25:05;;;;;;;6.05;3.30;;;;;;;16.36;71.14;97352.75;5027279;28;20045;-63
2022/08/03 02:27:34;;;;;;;3.90;2.90;;;;;;;16.38;71.05;97350.56;5023159;28;20045;-63
2022/08/03 02:30:09;;;;;;;6.43;2.90;;;;;;;16.45;70.76;97350.22;5011866;28;20037;-63
2022/08/03 02:32:39;;;;;;;3.88;2.60;;;;;;;16.42;70.42;97357.09;5026432;28;20041;-63
2022/08/03 02:35:10;;;;;;;7.43;2.70;;;;;;;16.49;70.39;97352.09;5027666;28;20501;-63
2022/08/03 02:37:40;;;;;;;;;;;;;;;16.58;69.94;97359.66;5027788;28;20502;-63
2022/08/03 02:40:12;;;;;;;4.32;2.40;;;;;;;16.56;70.11;97353.66;5021780;28;19959;-63
2022/08/03 02:42:42;;;;;;;5.88;2.70;;;;;;;16.64;69.91;97353.00;5016609;28;20057;-63
2022/08/03 02:45:13;;;;;;;7.53;2.95;;;;;;;16.73;69.45;97353.97;5026348;28;20033;-63
2022/08/03 02:47:44;;;;;;;4.28;2.88;;;;;;;16.74;69.15;97346.59;5027404;28;20037;-63
2022/08/03 02:50:21;;;;;;;5.10;2.85;;;;;;;16.74;69.22;97347.38;5026799;28;20044;-63
2022/08/03 02:52:50;;;;;;;5.82;2.75;;;;;;;16.77;68.90;97346.03;5027007;28;20065;-63
2022/08/03 02:55:19;;;;;;;4.80;2.85;;;;;;;16.81;68.74;97351.69;5013442;28;20038;-64
2022/08/03 02:57:47;;;;;;;5.80;2.70;;;;;;;16.82;68.79;97347.84;5026552;28;20087;-64
2022/08/03 03:00:14;;;;;;;5.10;2.83;;;;;;;16.73;69.25;97342.25;5026734;28;20508;-64
2022/08/03 03:02:57;;;;;;;7.07;3.33;;;;;;;16.73;69.23;97342.25;5026077;28;20041;-63
2022/08/03 03:05:25;;;;;;;4.30;2.70;;;;;;;16.68;69.20;97342.28;5026095;28;20073;-63
2022/08/03 03:08:14;;;;;;;4.45;2.83;;;;;;;16.63;69.72;97337.72;5027254;28;20049;-63
2022/08/03 03:10:45;;;;;;;5.82;2.85;;;;;;;16.52;70.16;97339.75;5025986;28;20042;-63
2022/08/03 03:13:14;;;;;;;4.60;2.88;;;;;;;16.41;70.86;97336.34;5026506;28;20263;-63
2022/08/03 03:15:44;;;;;;;7.13;2.80;;;;;;;16.29;71.07;97346.84;5026228;28;20037;-63
2022/08/03 03:18:11;;;;;;;4.25;2.70;;;;;;;16.33;71.02;97336.97;5026761;28;20109;-64
2022/08/03 03:20:39;;;;;;;6.97;3.10;;;;;;;16.25;71.27;97335.66;5026700;28;20046;-63
2022/08/03 03:23:08;;;;;;;6.63;3.33;;;;;;;16.34;71.24;97338.59;5027208;28;20049;-63
2022/08/03 03:25:35;;;;;;;7.10;2.90;;;;;;;16.25;71.53;97343.88;5026411;28;20107;-63
2022/08/03 03:28:03;;;;;;;5.28;3.08;;;;;;;16.16;71.70;97338.25;5018674;28;20042;-63
2022/08/03 03:30:33;;;;;;;5.90;3.22;;;;;;;16.07;72.18;97339.97;5011616;28;20048;-64
2022/08/03 03:32:59;;;;;;;5.75;3.75;;;;;;;16.12;71.64;97337.19;5026846;28;20052;-63
2022/08/03 03:35:26;;;;;;;5.65;3.67;;;;;;;16.05;72.27;97343.00;5025845;28;20045;-63
2022/08/03 03:37:53;;;;;;;5.05;3.17;;;;;;;15.99;72.46;97336.78;5025781;28;20049;-63
2022/08/03 03:40:21;;;;;;;5.63;3.00;;;;;;;15.94;72.62;97335.97;5025842;28;20464;-63
2022/08/03 03:42:48;;;;;;;8.65;3.22;;;;;;;15.83;73.05;97341.53;5025441;28;20049;-63
2022/08/03 03:45:15;;;;;;;6.65;3.25;;;;;;;15.79;73.59;97334.19;5024390;28;20075;-62
2022/08/03 03:47:42;;;;;;;5.15;3.00;;;;;;;15.83;73.27;97343.44;5014566;28;20125;-63
2022/08/03 03:50:09;;;;;;;5.57;3.35;;;;;;;15.83;73.31;97344.28;5007109;28;20449;-63
2022/08/03 03:52:36;;;;;;;6.00;3.03;;;;;;;15.91;72.74;97333.81;5015826;28;20050;-63
2022/08/03 03:55:03;;;;;;;5.28;2.90;;;;;;;15.94;72.97;97339.56;5017630;28;20052;-63
2022/08/03 03:57:29;;;;;;;4.82;2.50;;;;;;;16.05;72.50;97340.25;5013666;28;20541;-63
2022/08/03 03:59:56;;;;;;;4.18;3.10;;;;;;;16.14;72.32;97337.69;5024381;28;20781;-63
2022/08/03 04:02:23;;;;;;;4.70;3.13;;;;;;;16.02;72.30;97335.38;5010079;28;20080;-63
2022/08/03 04:10:58;;;;;;;4.80;3.40;;;;;;;15.97;72.56;97338.16;5019478;28;20038;-63
2022/08/03 04:13:36;;;;;;;5.75;3.75;;;;;;;15.91;72.79;97342.81;5016398;28;20280;-64
2022/08/03 04:16:06;;;;;;;4.85;3.00;;;;;;;15.97;72.88;97344.44;5016816;28;20049;-63
2022/08/03 04:18:34;;;;;;;5.63;3.13;;;;;;;15.95;73.05;97346.63;5023917;28;20567;-63
2022/08/03 04:21:04;;;;;;;6.13;3.38;;;;;;;16.02;72.48;97350.94;5021578;28;20051;-63
2022/08/03 04:23:34;;;;;;;5.50;2.97;;;;;;;16.03;72.43;97344.38;5020038;28;20460;-63
2022/08/03 04:26:02;;;;;;;4.40;2.90;;;;;;;15.99;72.38;97347.69;5013801;28;20045;-63
2022/08/03 04:28:31;;;;;;;6.82;2.95;;;;;;;15.98;72.37;97353.44;5023686;28;20057;-63
2022/08/03 04:31:02;;;;;;;6.47;3.20;;;;;;;16.01;72.20;97354.78;5023822;28;20099;-63
2022/08/03 04:33:32;;;;;;;5.50;3.00;;;;;;;16.09;72.06;97354.16;5010106;28;20052;-63
2022/08/03 04:36:05;;;;;;;4.57;2.75;;;;;;;16.16;71.96;97357.38;5017500;28;20052;-49
2022/08/03 04:38:37;;;;;;;6.05;3.05;;;;;;;16.27;71.29;97355.34;5020695;28;20535;-52
2022/08/03 04:41:05;;;;;;;4.35;3.03;;;;;;;16.32;71.14;97360.75;5017496;28;20038;-52
2022/08/03 04:43:33;;;;;;;4.88;3.22;;;;;;;16.40;70.83;97356.53;5016043;28;20096;-51
2022/08/03 04:46:01;;;;;;;4.28;2.90;;;;;;;16.57;70.25;97352.53;5016104;28;20042;-53
2022/08/03 04:48:28;;;;;;;5.80;2.95;;;;;;;16.57;70.32;97358.81;5008150;28;20065;-59
2022/08/03 04:50:55;;;;;;;7.05;2.83;;;;;;;16.56;70.48;97359.94;5008311;28;20074;-51
2022/08/03 04:53:22;;;;;;;5.65;3.17;;;;;;;16.76;69.92;97363.50;5008107;28;20060;-50
2022/08/03 04:55:49;;;;;;;5.40;2.75;;;;;;;16.78;69.71;97362.09;5025373;28;20512;-52
2022/08/03 04:58:15;;;;;;;4.45;2.78;;;;;;;17.03;69.08;97373.03;5026256;28;20053;-49
2022/08/03 05:00:44;;;;;;;4.90;2.80;;;;;;;17.10;68.60;97368.00;5024286;28;20119;-55
2022/08/03 05:03:10;;;;;;;5.55;3.03;;;;;;;17.18;67.77;97358.34;5023775;28;20045;-49
2022/08/03 05:05:54;;;;;;;7.13;2.97;;;;;;;17.20;68.32;97361.59;5017060;28;20050;-53
2022/08/03 05:08:36;;;;;;;6.78;2.80;;;;;;;17.36;67.89;97355.91;5021609;28;20137;-54
2022/08/03 05:11:14;;;;;;;5.25;2.67;;;;;;;17.50;67.30;97364.16;5018672;28;20033;-53
2022/08/03 05:13:40;;;;;;;5.07;2.72;;;;;;;17.51;67.41;97365.81;5015730;28;20047;-55
2022/08/03 05:16:07;;;;;;;4.80;2.58;;;;;;;17.55;67.46;97369.56;5021308;28;20037;-55
2022/08/03 05:18:34;;;;;;;4.90;2.60;;;;;;;17.73;66.76;97365.16;5018617;28;20103;-55
2022/08/03 05:21:01;;;;;;;6.90;2.58;;;;;;;17.78;66.63;97370.56;5020199;28;20037;-54
2022/08/03 05:23:27;;;;;;;6.70;2.75;;;;;;;17.88;66.10;97364.06;5012200;28;20045;-53
2022/08/03 05:25:54;;;;;;;4.88;2.67;;;;;;;17.98;66.12;97371.31;5012468;28;20120;-54
2022/08/03 05:28:21;;;;;;;6.20;2.38;;;;;;;18.06;66.00;97367.88;5014915;28;20476;-51
2022/08/03 05:30:47;;;;;;;5.05;2.95;;;;;;;18.28;65.51;97371.09;5010835;28;20644;-54
2022/08/03 05:33:14;;;;;;;5.18;2.60;;;;;;;18.38;65.24;97361.84;5015054;28;20065;-53
2022/08/03 05:35:40;;;;;;;4.43;2.55;;;;;;;18.48;65.00;97371.81;5034590;28;20525;-52
2022/08/03 05:38:27;;;;;;;4.78;2.28;;;;;;;18.65;64.86;97373.97;5010753;28;20050;-52
2022/08/03 05:41:04;;;;;;;8.32;2.90;;;;;;;18.74;64.72;97374.88;5015720;28;20065;-53
2022/08/03 05:43:53;;;;;;;5.32;2.75;;;;;;;18.94;63.91;97370.88;5015297;28;20052;-50
2022/08/03 05:46:21;;;;;;;4.97;2.25;;;;;;;19.13;63.18;97371.91;5023744;28;20041;-54
2022/08/03 05:48:47;;;;;;;4.28;2.50;;;;;;;19.29;62.76;97373.19;5012688;28;20557;-54
2022/08/03 05:51:14;;;;;;;4.00;2.20;;;;;;;19.49;61.55;97371.88;5015828;28;20528;-52
2022/08/03 05:53:42;;;;;;;7.15;2.25;;;;;;;19.72;61.15;97369.13;5018581;28;20130;-54
2022/08/03 05:56:09;;;;;;;5.43;2.50;;;;;;;19.95;60.13;97373.81;5026196;28;20060;-51
2022/08/03 05:58:45;;;;;;;3.60;2.30;;;;;;;20.18;58.76;97377.38;5026351;28;20053;-54
2022/08/03 06:01:16;;;;;;;4.20;2.50;;;;;;;20.35;58.34;97365.63;5024905;28;20099;-53
2022/08/03 06:03:44;;;;;;;4.45;2.35;;;;;;;20.50;57.55;97380.91;5027573;28;20072;-50
2022/08/03 06:06:11;;;;;;;8.40;2.78;;;;;;;20.67;57.29;97363.66;5027635;28;20056;-51
2022/08/03 06:08:38;;;;;;;3.70;2.47;;;;;;;20.87;56.89;97374.41;5027408;28;20049;-50
2022/08/03 06:11:05;;;;;;;5.68;2.33;;;;;;;21.10;56.16;97366.06;5015352;28;20046;-66
2022/08/03 06:13:32;;;;;;;4.63;2.40;;;;;;;21.30;55.45;97372.91;5015576;28;20046;-65
2022/08/03 06:15:59;;;;;;;4.63;2.40;;;;;;;21.49;55.36;97375.31;5017227;28;20042;-66
2022/08/03 06:18:25;;;;;;;3.95;2.30;;;;;;;21.62;54.89;97365.25;5012929;28;20077;-66
2022/08/03 06:20:52;;;;;;;3.45;2.15;;;;;;;21.70;55.24;97369.97;5017413;28;20053;-65
2022/08/03 06:23:20;;;;;;;6.00;2.47;;;;;;;21.88;55.03;97366.38;5007117;28;20053;-64
2022/08/03 06:25:47;;;;;;;5.00;2.30;;;;;;;21.92;54.93;97370.13;5009248;28;20037;-66
2022/08/03 06:28:14;;;;;;;4.07;2.20;;;;;;;21.99;54.58;97370.44;5023565;28;20049;-66
2022/08/03 06:31:01;;;;;;;3.83;2.10;;;;;;;22.11;54.76;97372.50;5027248;28;20483;-65
2022/08/03 06:33:28;;;;;;;3.83;1.98;;;;;;;22.14;54.58;97371.03;5017124;28;20060;-67
2022/08/03 06:36:14;;;;;;;4.10;2.10;;;;;;;22.29;54.14;97370.50;5021883;28;20065;-66
2022/08/03 06:38:41;;;;;;;4.40;2.15;;;;;;;22.51;53.48;97370.59;5008961;28;20547;-65
2022/08/03 06:41:07;;;;;;;7.13;2.30;;;;;;;22.59;53.62;97362.31;5018055;28;20064;-66
2022/08/03 06:43:37;;;;;;;2.70;1.90;;;;;;;22.68;53.45;97362.28;5010304;28;20068;-66
2022/08/03 06:46:23;;;;;;;5.53;2.13;;;;;;;22.89;52.88;97366.22;5009929;28;20131;-66
2022/08/03 06:48:51;;;;;;;3.65;2.20;;;;;;;23.07;52.14;97372.44;5005525;28;20414;-66
2022/08/03 06:51:18;;;;;;;5.45;1.90;;;;;;;23.19;51.75;97372.53;5010411;28;20045;-66
2022/08/03 06:53:44;;;;;;;2.88;1.77;;;;;;;23.34;51.86;97375.84;5006303;28;20111;-67
2022/08/03 06:56:11;;;;;;;4.70;1.90;;;;;;;23.45;51.19;97379.03;5017174;28;20559;-66
2022/08/03 06:58:37;;;;;;;3.20;1.70;;;;;;;23.56;50.94;97377.47;5020110;28;20049;-66
2022/08/03 07:01:04;;;;;;;3.90;1.80;;;;;;;23.63;51.29;97374.16;5004922;28;20049;-66
2022/08/03 07:03:31;;;;;;;3.90;1.80;;;;;;;23.76;50.59;97378.59;5023343;28;20847;-65
2022/08/03 07:05:58;;;;;;;4.05;1.73;;;;;;;24.03;50.26;97373.59;5025093;28;20045;-66
2022/08/03 07:08:25;;;;;;;3.45;1.88;;;;;;;24.11;50.17;97371.13;5019302;28;20049;-63
2022/08/03 07:10:59;;;;;;;2.88;1.80;;;;;;;24.16;50.13;97376.44;5017926;28;20725;-63
2022/08/03 07:13:26;;;;;;;3.15;1.70;;;;;;;24.12;49.96;97378.28;5024967;28;20563;-64
2022/08/03 07:15:53;;;;;;;3.28;1.77;;;;;;;24.22;49.53;97377.84;5007735;28;20053;-64
2022/08/03 07:18:22;;;;;;;3.50;1.70;;;;;;;24.17;50.04;97378.06;5006923;28;20042;-63
2022/08/03 07:20:55;;;;;;;2.95;2.00;;;;;;;24.29;49.89;97380.06;5008960;28;20107;-63
2022/08/03 07:23:22;;;;;;;3.50;1.92;;;;;;;24.50;49.25;97377.19;5025660;28;20498;-64
2022/08/03 07:25:49;;;;;;;4.10;1.83;;;;;;;24.54;48.90;97386.41;5026698;28;20180;-64
2022/08/03 07:28:16;;;;;;;6.55;1.88;;;;;;;24.53;49.42;97384.00;5026674;28;20059;-63
2022/08/03 07:30:42;;;;;;;4.22;2.00;;;;;;;24.65;48.60;97378.47;5026515;28;20716;-65
2022/08/03 07:33:09;;;;;;;5.22;2.08;;;;;;;24.78;48.45;97379.28;5026109;28;20041;-66
2022/08/03 07:35:36;;;;;;;5.88;1.90;;;;;;;24.84;48.19;97379.88;5015656;28;20045;-65
2022/08/03 07:38:02;;;;;;;5.05;1.85;;;;;;;24.96;47.34;97384.63;5020432;28;20041;-65
2022/08/03 07:40:29;;;;;;;2.63;1.80;;;;;;;24.94;47.69;97381.38;5013310;28;20051;-66
2022/08/03 07:42:57;;;;;;;4.25;1.75;;;;;;;24.99;48.41;97383.91;5011573;28;20049;-66
2022/08/03 07:45:25;;;;;;;3.50;1.38;;;;;;;25.06;48.07;97383.34;5024031;28;20041;-65
2022/08/03 07:47:52;;;;;;;5.32;1.40;;;;;;;25.12;47.19;97383.88;5018476;28;20038;-66
2022/08/03 07:50:20;;;;;;;2.45;1.30;;;;;;;25.30;46.36;97387.22;5004762;28;20050;-66
2022/08/03 07:52:51;;;;;;;2.28;1.20;;;;;;;25.40;45.98;97383.97;5017431;28;20049;-66
2022/08/03 07:55:23;;;;;;;2.00;1.13;;;;;;;25.60;46.39;97386.13;5021159;28;20054;-66
2022/08/03 07:58:29;;;;;;;3.35;1.33;;;;;;;25.58;45.99;97383.72;5026196;28;20063;-66
2022/08/03 08:00:54;;;;;;;2.33;1.20;;;;;;;25.65;45.25;97389.44;5006297;28;20465;-66
2022/08/03 08:03:20;;;;;;;3.28;1.20;;;;;;;25.86;44.63;97390.44;5006616;28;20049;-66
2022/08/03 08:05:48;;;;;;;1.98;1.17;;;;;;;25.86;44.99;97385.66;5020337;28;20060;-63
2022/08/03 08:08:14;;;;;;;2.30;1.52;;;;;;;25.85;43.83;97386.84;5025615;28;20049;-63
2022/08/03 08:10:41;;;;;;;2.25;1.15;;;;;;;25.86;43.92;97384.88;5025558;28;20386;-63
2022/08/03 08:13:23;;;;;;;1.73;1.15;;;;;;;25.90;43.92;97375.47;5025645;28;20065;-66
2022/08/03 08:15:50;;;;;;;2.33;1.10;;;;;;;26.06;44.42;97381.06;5025653;28;20057;-65
2022/08/03 08:18:17;;;;;;;3.38;1.27;;;;;;;26.25;43.66;97371.25;5026435;28;20045;-65
2022/08/03 08:20:43;;;;;;;3.45;1.13;;;;;;;26.26;43.48;97383.16;5006276;28;20108;-66
2022/08/03 08:23:10;;;;;;;3.88;1.25;;;;;;;26.34;43.07;97382.19;5005079;28;20081;-66
2022/08/03 08:25:57;;;;;;;2.38;1.00;;;;;;;26.34;42.91;97380.25;5005863;28;20668;-66
2022/08/03 08:28:23;;;;;;;1.83;1.00;;;;;;;26.46;43.18;97376.56;5017765;28;21112;-66
2022/08/03 08:30:58;;;;;;;1.85;1.05;;;;;;;26.52;41.46;97371.56;5017375;28;20045;-64
2022/08/03 08:33:25;;;;;;;2.38;1.00;;;;;;;26.59;40.29;97371.75;5020628;28;20053;-64
2022/08/03 08:36:11;;;;;;;3.92;1.08;;;;;;;26.68;40.21;97371.56;5010923;28;20057;-63
2022/08/03 08:38:43;;;;;;;2.00;1.10;;;;;;;26.73;39.92;97378.81;5014641;28;20056;-64
2022/08/03 08:41:10;;;;;;;4.55;1.10;;;;;;;26.81;40.84;97377.00;5022928;28;20160;-63
2022/08/03 08:43:37;;;;;;;2.80;1.20;;;;;;;26.90;41.16;97377.63;5016176;28;20072;-63
2022/08/03 08:46:07;;;;;;;4.47;1.05;;;;;;;27.06;39.06;97372.09;5018466;28;20052;-63
2022/08/03 08:48:39;;;;;;;5.18;1.40;;;;;;;27.11;38.38;97374.56;5015972;28;20038;-62
2022/08/03 08:51:07;;;;;;;3.78;1.52;;;;;;;27.11;39.27;97374.56;5019404;28;20038;-62
2022/08/03 08:53:37;;;;;;;1.65;1.00;;;;;;;27.23;38.70;97370.06;5019233;28;20794;-62
2022/08/03 08:56:04;;;;;;;4.05;1.10;;;;;;;27.32;37.21;97373.44;5016727;28;20128;-62
2022/08/03 08:58:38;;;;;;;1.65;1.00;;;;;;;27.30;37.94;97372.97;5016561;28;20046;-63
2022/08/03 09:01:05;;;;;;;3.42;1.20;;;;;;;27.31;37.55;97366.25;5015196;28;20050;-62
2022/08/03 09:03:34;;;;;;;2.40;1.27;;;;;;;27.32;37.75;97375.41;5013364;28;20095;-62
2022/08/03 09:06:02;;;;;;;2.78;1.30;;;;;;;27.51;37.42;97374.63;5026658;28;20053;-62
2022/08/03 09:08:30;;;;;;;3.38;1.10;;;;;;;27.55;37.51;97369.94;5012773;28;20050;-62
2022/08/03 09:10:56;;;;;;;1.63;0.95;;;;;;;27.57;36.51;97367.63;5009247;28;20046;-63
2022/08/03 09:13:23;;;;;;;2.08;1.05;;;;;;;27.63;36.60;97368.13;5013260;28;20049;-61
2022/08/03 09:16:08;;;;;;;2.25;1.10;;;;;;;27.59;36.64;97370.00;5013922;28;20045;-62
2022/08/03 09:18:34;;;;;;;2.47;1.20;;;;;;;27.82;35.37;97367.31;5019703;28;20049;-62
2022/08/03 09:21:16;;;;;;;2.38;1.10;;;;;;;27.78;35.78;97372.81;5018404;28;20676;-63
2022/08/03 09:24:01;;;;;;;2.88;0.93;;;;;;;27.98;35.14;97363.66;5021360;28;20053;-62
2022/08/03 09:26:31;;;;;;;2.40;1.48;;;;;;;28.14;35.16;97367.13;5013602;28;20103;-63
2022/08/03 09:28:58;;;;;;;1.58;0.77;;;;;;;28.23;32.06;97366.88;5024994;28;20049;-62
2022/08/03 09:31:38;;;;;;;1.75;0.80;;;;;;;28.19;32.74;97366.00;5025169;28;20092;-62
2022/08/03 09:34:15;;;;;;;2.60;1.00;;;;;;;28.16;33.37;97364.78;5006406;28;20053;-62
2022/08/03 09:36:44;;;;;;;4.15;1.02;;;;;;;28.19;33.61;97363.22;5019836;28;20049;-61
2022/08/03 09:39:13;;;;;;;2.63;1.00;;;;;;;28.21;34.21;97357.28;5014320;28;20053;-62
2022/08/03 09:41:43;;;;;;;1.80;1.10;;;;;;;28.39;34.54;97357.66;5022431;28;20045;-62
2022/08/03 09:44:10;;;;;;;3.47;1.10;;;;;;;28.37;33.92;97360.00;5007136;28;20045;-62
2022/08/03 09:46:55;;;;;;;1.42;1.00;;;;;;;28.54;34.44;97355.91;5006453;28;20049;-63
2022/08/03 09:49:23;;;;;;;2.15;1.02;;;;;;;28.52;33.96;97352.69;5018885;28;20260;-63
2022/08/03 09:51:50;;;;;;;2.70;0.90;;;;;;;28.64;33.94;97352.47;5020561;28;20042;-64
2022/08/03 09:54:36;;;;;;;2.83;1.10;;;;;;;28.78;34.24;97348.34;5010574;28;20425;-62
2022/08/03 09:57:03;;;;;;;2.88;0.95;;;;;;;28.99;33.64;97349.84;5015770;28;20508;-62
2022/08/03 09:59:31;;;;;;;2.42;1.13;;;;;;;28.69;33.55;97351.38;5023199;28;20068;-63
2022/08/03 10:01:59;;;;;;;1.55;1.10;;;;;;;28.58;34.66;97345.63;5011760;28;20555;-62
2022/08/03 10:04:26;;;;;;;4.88;1.30;;;;;;;28.89;34.27;97357.66;5016630;28;20060;-62
2022/08/03 10:07:03;;;;;;;3.22;1.52;;;;;;;28.76;34.95;97354.28;5019237;28;20056;-63
2022/08/03 10:09:30;;;;;;;2.78;1.10;;;;;;;28.72;34.85;97345.06;5019668;28;20053;-64
2022/08/03 10:12:05;;;;;;;3.60;1.30;;;;;;;29.17;35.39;97344.53;5018857;28;20137;-62
2022/08/03 10:14:32;;;;;;;2.85;1.20;;;;;;;29.24;34.34;97344.63;5012990;28;20076;-63
2022/08/03 10:16:59;;;;;;;2.90;1.40;;;;;;;29.21;34.48;97337.03;5021216;28;20045;-61
2022/08/03 10:19:25;;;;;;;4.80;1.45;;;;;;;29.14;34.52;97348.88;5019531;28;20065;-62
2022/08/03 10:22:00;;;;;;;2.80;1.48;;;;;;;29.27;34.41;97337.50;5020741;28;20049;-62
2022/08/03 10:24:28;;;;;;;2.20;1.30;;;;;;;29.24;34.22;97339.06;5014108;28;20050;-62
2022/08/03 10:27:02;;;;;;;2.25;1.42;;;;;;;29.12;34.70;97331.75;5021131;28;20524;-64
2022/08/03 10:29:35;;;;;;;3.90;1.17;;;;;;;29.22;34.47;97327.47;5018311;28;20044;-65
2022/08/03 10:32:06;;;;;;;2.40;1.30;;;;;;;29.19;34.85;97323.47;5016722;28;20064;-65
2022/08/03 10:34:39;;;;;;;4.35;1.52;;;;;;;29.28;34.65;97323.19;5013674;28;20060;-65
2022/08/03 10:37:13;;;;;;;5.43;1.45;;;;;;;29.39;34.83;97331.69;5018091;28;20428;-65
2022/08/03 10:39:52;;;;;;;1.95;1.30;;;;;;;29.62;33.78;97321.63;5013951;28;20103;-65
2022/08/03 10:42:26;;;;;;;3.47;1.30;;;;;;;29.78;32.97;97319.44;5021702;28;20038;-64
2022/08/03 10:45:05;;;;;;;2.47;1.48;;;;;;;29.78;33.58;97313.84;5021087;28;20046;-64
2022/08/03 10:47:33;;;;;;;2.17;1.20;;;;;;;29.83;32.91;97315.47;5022661;28;20055;-62
2022/08/03 10:50:00;;;;;;;2.25;1.30;;;;;;;29.97;33.03;97312.03;5019315;28;20049;-62
2022/08/03 10:52:27;;;;;;;2.17;1.23;;;;;;;30.14;33.03;97321.78;5017683;28;20033;-61
2022/08/03 10:57:52;;;;;;;3.40;1.38;;;;;;;29.85;32.88;97302.75;5022477;28;20050;-62
2022/08/03 11:00:26;;;;;;;2.33;1.20;;;;;;;29.83;32.74;97304.31;5023454;28;20045;-62
2022/08/03 11:03:15;;;;;;;2.80;1.27;;;;;;;30.07;32.94;97307.75;5015420;28;20087;-62
2022/08/03 11:05:47;;;;;;;3.03;1.20;;;;;;;30.31;31.86;97305.56;5018422;28;20060;-62
2022/08/03 11:08:19;;;;;;;2.35;1.13;;;;;;;30.29;31.89;97308.75;5015523;28;20111;-62
2022/08/03 11:10:47;;;;;;;3.28;1.48;;;;;;;30.27;32.16;97305.56;5008683;28;20042;-62
2022/08/03 11:13:16;;;;;;;2.65;1.40;;;;;;;30.26;31.59;97309.53;5013295;28;20042;-62
2022/08/03 11:15:45;;;;;;;3.00;1.20;;;;;;;30.10;31.45;97301.38;5024256;28;20068;-62
2022/08/03 11:18:13;;;;;;;3.47;1.35;;;;;;;30.03;31.92;97295.75;5017327;28;20044;-62
2022/08/03 11:20:44;;;;;;;2.55;1.10;;;;;;;29.94;31.88;97296.03;5019524;28;20571;-62
2022/08/03 11:23:12;;;;;;;2.78;1.30;;;;;;;30.10;31.72;97287.41;5016250;28;20542;-61
2022/08/03 11:26:16;;;;;;;2.42;1.17;;;;;;;30.39;30.47;97290.47;5021189;28;20053;-61
2022/08/03 11:28:45;;;;;;;2.63;1.40;;;;;;;30.80;30.62;97289.59;5019331;28;20045;-62
2022/08/03 11:31:23;;;;;;;2.00;1.17;;;;;;;30.84;30.18;97293.22;5010876;28;20723;-62
2022/08/03 11:34:12;;;;;;;3.80;1.10;;;;;;;30.70;30.19;97282.72;5014394;28;20581;-62
2022/08/03 11:37:16;;;;;;;2.03;1.20;;;;;;;30.67;30.72;97289.09;5018263;28;20715;-62
2022/08/03 11:39:45;;;;;;;1.50;1.05;;;;;;;30.73;29.77;97281.19;5008396;28;20536;-61
2022/08/03 11:42:21;;;;;;;2.58;1.35;;;;;;;30.48;30.01;97279.78;5023325;28;20044;-61
2022/08/03 11:44:51;;;;;;;2.38;1.15;;;;;;;30.52;29.97;97274.25;5022296;28;20041;-63
2022/08/03 11:47:20;;;;;;;2.00;1.17;;;;;;;31.11;30.15;97278.19;5017689;28;20034;-61
2022/08/03 11:49:48;;;;;;;3.80;1.30;;;;;;;31.25;28.81;97283.06;5023482;28;20113;-61
2022/08/03 11:52:18;;;;;;;3.53;1.38;;;;;;;31.31;29.47;97273.13;5016283;28;20049;-62
2022/08/03 11:54:53;;;;;;;4.15;1.30;;;;;;;31.48;28.68;97281.97;5018912;28;20623;-63
2022/08/03 11:57:33;;;;;;;2.17;1.17;;;;;;;31.62;28.16;97279.19;5010854;28;20046;-62
2022/08/03 12:00:25;;;;;;;3.78;1.20;;;;;;;31.89;27.88;97272.50;5011079;28;20711;-61